Data for 12/09/2015

Time Sea-Level Adjusted Pressure Absolute Pressure Temperature Relative Humidity Dew Point   
(mb) (inHg) (mb) (inHg) (C) (F) (%) (C) (F)
00:05 1011 29.85 840 24.81 10.5 50.8 37 -3.7 25.4
00:10 1011 29.85 840 24.81 10.7 51.3 37 -3.4 25.9
00:15 1011 29.85 840 24.81 10.6 51.1 37 -3.3 26.1
00:20 1011 29.85 840 24.81 10.4 50.6 38 -3.2 26.3
00:25 1011 29.85 840 24.81 10.2 50.4 39 -2.9 26.7
00:30 1011 29.85 840 24.81 10.2 50.4 39 -3.1 26.4
00:35 1011 29.85 840 24.81 10.4 50.7 39 -2.8 26.9
00:40 1011 29.85 840 24.81 10.2 50.4 39 -3 26.5
00:45 1011 29.85 840 24.81 10.1 50.1 39 -3.3 26
00:50 1011 29.85 840 24.81 10.3 50.5 38 -3.4 25.8
00:55 1011 29.85 840 24.81 10.1 50.2 39 -3 26.5
01:00 1011 29.85 840 24.81 9.8 49.7 39 -3.3 26
01:05 1011 29.85 840 24.81 9.9 49.8 38 -3.8 25.2
01:10 1011 29.85 840 24.81 10.5 50.9 36 -4 24.9
01:15 1011 29.85 840 24.81 10.8 51.5 36 -3.5 25.7
01:20 1011 29.85 840 24.81 10.7 51.3 37 -3.4 25.8
01:25 1011 29.85 840 24.81 10.7 51.3 36 -3.5 25.6
01:30 1011 29.85 840 24.81 10.8 51.5 35 -4 24.9
01:35 1010 29.83 840 24.81 11.1 52 36 -3.3 26
01:40 1011 29.85 840 24.81 11 51.7 35 -3.8 25.2
01:45 1011 29.85 840 24.81 11.5 52.6 34 -4 24.9
01:50 1011 29.85 840 24.81 11.2 52.2 36 -3.2 26.3
01:55 1011 29.85 840 24.81 10.8 51.4 38 -3.1 26.5
02:00 1011 29.85 840 24.81 10.5 50.8 38 -3.3 26
02:05 1010 29.83 840 24.81 10.4 50.7 38 -3.4 25.9
02:10 1010 29.83 839 24.78 10.4 50.7 37 -3.8 25.2
02:15 1010 29.83 839 24.78 10.6 51.1 36 -3.7 25.4
02:20 1010 29.83 839 24.78 10.5 50.8 37 -3.5 25.6
02:25 1010 29.83 839 24.78 10.3 50.6 38 -3.4 25.9
02:30 1010 29.83 839 24.78 10.2 50.4 37 -3.6 25.5
02:35 1010 29.83 839 24.78 10.4 50.7 36 -4 24.9
02:40 1010 29.83 839 24.78 10.6 51 35 -4.1 24.6
02:45 1010 29.83 840 24.81 10.7 51.3 35 -4.1 24.7
02:50 1010 29.83 839 24.78 10.6 51.1 35 -4.2 24.4
02:55 1010 29.83 839 24.78 10.5 51 35 -4.1 24.6
03:00 1010 29.83 839 24.78 10.5 50.8 36 -3.9 25
03:05 1010 29.83 839 24.78 10.3 50.5 36 -4.1 24.6
03:10 1010 29.83 839 24.78 10.5 50.9 33 -5.1 22.9
03:15 1010 29.83 839 24.78 11 51.7 32 -5 23.1
03:20 1010 29.83 839 24.78 11.3 52.3 32 -5 23
03:25 1010 29.83 839 24.78 11.1 52 32 -4.8 23.4
03:30 1010 29.83 839 24.78 10.9 51.6 33 -4.6 23.8
03:35 1010 29.83 839 24.78 10.7 51.2 34 -4.6 23.6
03:40 1010 29.83 839 24.78 10.7 51.3 34 -4.6 23.7
03:45 1010 29.83 839 24.78 10.7 51.3 33 -4.8 23.3
03:50 1010 29.83 839 24.78 10.8 51.5 33 -4.6 23.8
03:55 1010 29.83 839 24.78 10.6 51.2 34 -4.7 23.6
04:00 1010 29.83 839 24.78 10.7 51.3 33 -4.8 23.3
04:05 1010 29.83 839 24.78 11.1 52 29 -6.3 20.6
04:10 1010 29.83 839 24.78 11.9 53.4 31 -4.7 23.6
04:15 1010 29.83 839 24.78 11.4 52.5 32 -4.7 23.5
04:20 1010 29.83 839 24.78 11.2 52.1 32 -4.8 23.3
04:25 1010 29.83 839 24.78 11 51.9 32 -4.9 23.1
04:30 1010 29.83 839 24.78 11.2 52.1 32 -5 23
04:35 1010 29.83 839 24.78 11.3 52.3 31 -5.1 22.8
04:40 1010 29.83 839 24.78 11.4 52.5 31 -5 23
04:45 1010 29.83 839 24.78 11.3 52.4 32 -4.9 23.1
04:50 1010 29.83 839 24.78 11.2 52.2 32 -4.8 23.4
04:55 1009 29.8 839 24.78 11.4 52.5 31 -5.1 22.9
05:00 1009 29.8 839 24.78 11.6 52.8 30 -5.4 22.3
05:05 1009 29.8 839 24.78 11.7 53.1 29 -5.7 21.8
05:10 1009 29.8 839 24.78 11.8 53.2 30 -5.3 22.5
05:15 1009 29.8 839 24.78 11.7 53 29 -5.8 21.6
05:20 1010 29.83 839 24.78 11.7 53.1 28 -5.9 21.3
05:25 1010 29.83 839 24.78 12 53.6 29 -5.6 22
05:30 1009 29.8 839 24.78 11.9 53.4 29 -5.7 21.8
05:35 1009 29.8 839 24.78 11.9 53.5 28 -6 21.2
05:40 1009 29.8 839 24.78 11.8 53.2 30 -5.3 22.5
05:45 1009 29.8 838 24.75 11.7 53 29 -5.9 21.4
05:50 1009 29.8 838 24.75 11.7 53.1 29 -5.7 21.8
05:55 1009 29.8 839 24.78 11.6 53 28 -6.2 20.9
06:00 1009 29.8 838 24.75 11.7 53.1 28 -6.2 20.9
06:05 1009 29.8 838 24.75 11.9 53.4 27 -6.4 20.4
06:10 1009 29.8 838 24.75 12.2 53.9 27 -6.3 20.7
06:15 1009 29.8 838 24.75 11.9 53.4 27 -6.7 20
06:20 1009 29.8 838 24.75 12.2 54 25 -7.4 18.8
06:25 1009 29.8 838 24.75 12.5 54.5 25 -7.1 19.3
06:30 1009 29.8 838 24.75 12.4 54.4 27 -6.2 20.9
06:35 1009 29.8 838 24.75 11.9 53.4 27 -6.3 20.6
06:40 1009 29.8 838 24.75 11.7 53 29 -5.6 21.9
06:45 1009 29.8 838 24.75 11.3 52.3 28 -6.7 19.9
06:50 1009 29.8 838 24.75 11.5 52.6 28 -6.4 20.4
06:55 1009 29.8 838 24.75 11.5 52.8 28 -6.3 20.6
07:00 1009 29.8 838 24.75 11.5 52.7 28 -6.2 20.8
07:05 1009 29.8 838 24.75 11.4 52.4 29 -5.8 21.5
07:10 1009 29.8 838 24.75 11.1 52.1 29 -6.1 21
07:15 1009 29.8 838 24.75 11.2 52.1 30 -5.9 21.3
07:20 1008 29.77 838 24.75 11 51.8 29 -6.1 21
07:25 1008 29.77 838 24.75 10.8 51.5 29 -6.3 20.6
07:30 1008 29.77 838 24.75 10.9 51.6 29 -6.4 20.4
07:35 1008 29.77 837 24.72 11 51.7 29 -6.4 20.5
07:40 1008 29.77 838 24.75 10.9 51.6 29 -6.4 20.4
07:45 1008 29.77 837 24.72 10.9 51.6 28 -6.7 19.9
07:50 1008 29.77 837 24.72 11 51.9 29 -6.3 20.6
07:55 1008 29.77 837 24.72 10.9 51.5 28 -7 19.4
08:00 1008 29.77 837 24.72 11.2 52.1 28 -6.5 20.4
08:05 1008 29.77 837 24.72 11 51.9 27 -7.2 19
08:10 1008 29.77 837 24.72 11.3 52.3 28 -6.8 19.8
08:15 1008 29.77 837 24.72 11 51.8 28 -6.7 19.9
08:20 1008 29.77 837 24.72 10.9 51.7 28 -6.7 19.9
08:25 1008 29.77 837 24.72 11.1 51.9 27 -7.1 19.1
08:30 1008 29.77 837 24.72 11.3 52.3 28 -6.8 19.8
08:35 1008 29.77 837 24.72 11.1 51.9 28 -6.8 19.8
08:40 1008 29.77 837 24.72 11.1 52 27 -6.9 19.5
08:45 1008 29.77 837 24.72 11.3 52.3 26 -7.5 18.6
08:50 1008 29.77 837 24.72 11.6 53 26 -7 19.4
08:55 1008 29.77 837 24.72 11.5 52.7 26 -7.6 18.4
09:00 1007 29.74 837 24.72 11.8 53.2 26 -7.2 19.1
09:05 1007 29.74 837 24.72 11.5 52.8 27 -6.7 20
09:10 1007 29.74 837 24.72 11.2 52.2 27 -6.9 19.5
09:15 1007 29.74 836 24.69 11.4 52.5 26 -7.4 18.7
09:20 1007 29.74 836 24.69 11.6 53 24 -8 17.5
09:25 1007 29.74 836 24.69 11.9 53.5 24 -8.1 17.3
09:30 1007 29.74 836 24.69 12.5 54.4 22 -8.5 16.7
09:35 1007 29.74 836 24.69 12.6 54.7 24 -7.6 18.3
09:40 1007 29.74 836 24.69 12.3 54.1 23 -8.4 16.9
09:45 1007 29.74 836 24.69 12.6 54.6 23 -7.9 17.8
09:50 1007 29.74 836 24.69 12.4 54.3 24 -7.3 18.8
09:55 1006 29.71 836 24.69 12.1 53.8 25 -7.1 19.2
10:00 1006 29.71 836 24.69 11.9 53.4 26 -7.2 19.1
10:05 1006 29.71 835 24.66 11.9 53.5 25 -7.5 18.5
10:10 1006 29.71 835 24.66 12 53.5 25 -7.2 19
10:15 1006 29.71 836 24.69 11.8 53.3 26 -7 19.4
10:20 1006 29.71 836 24.69 11.7 53 26 -7 19.4
10:25 1006 29.71 836 24.69 11.5 52.8 27 -6.9 19.6
10:30 1006 29.71 836 24.69 11.1 51.9 28 -6.9 19.6
10:35 1006 29.71 835 24.66 10.6 51.1 30 -6.3 20.7
10:40 1006 29.71 835 24.66 10.3 50.5 32 -5.7 21.8
10:45 1006 29.71 835 24.66 10.1 50.1 34 -5.1 22.9
10:50 1006 29.71 835 24.66 9.9 49.8 35 -5 23.1
10:55 1006 29.71 835 24.66 9.9 49.7 35 -4.8 23.4
11:00 1006 29.71 835 24.66 10.1 50.1 31 -6.3 20.6
11:05 1006 29.71 835 24.66 10.7 51.2 32 -5.3 22.5
11:10 1006 29.71 835 24.66 10.7 51.3 30 -6 21.2
11:15 1006 29.71 835 24.66 10.9 51.7 31 -5.4 22.3
11:20 1006 29.71 835 24.66 11 51.7 29 -6.4 20.4
11:25 1006 29.71 835 24.66 11.4 52.6 28 -6.5 20.3
11:30 1005 29.68 835 24.66 11.9 53.3 28 -6.2 20.8
11:35 1006 29.71 835 24.66 12.1 53.7 28 -5.9 21.3
11:40 1006 29.71 835 24.66 12.2 54 27 -6 21.2
11:45 1006 29.71 835 24.66 12.3 54.1 28 -5.8 21.5
11:50 1005 29.68 835 24.66 12.3 54.2 29 -5.4 22.4
11:55 1006 29.71 835 24.66 12.2 53.9 29 -5.4 22.3
12:00 1006 29.71 835 24.66 12.1 53.7 30 -5 23.1
12:05 1005 29.68 835 24.66 12 53.5 29 -5.5 22.1
12:10 1005 29.68 834 24.63 12.1 53.7 30 -5 23
12:15 1005 29.68 834 24.63 11.8 53.2 31 -4.9 23.3
12:20 1005 29.68 834 24.63 11.7 53 31 -5 23
12:25 1005 29.68 834 24.63 11.5 52.7 31 -5.1 22.9
12:30 1005 29.68 834 24.63 11.6 52.8 30 -5.3 22.5
12:35 1005 29.68 834 24.63 11.6 52.8 30 -5.2 22.6
12:40 1005 29.68 834 24.63 11.4 52.5 33 -4.4 24
12:45 1005 29.68 834 24.63 11.2 52.1 33 -4.5 23.9
12:50 1005 29.68 834 24.63 11.1 51.9 34 -4.3 24.3
12:55 1005 29.68 834 24.63 10.9 51.6 33 -4.8 23.4
13:00 1004 29.65 834 24.63 11.1 52 33 -4.5 23.9
13:05 1004 29.65 834 24.63 11.3 52.3 31 -5.1 22.9
13:10 1005 29.68 834 24.63 11.4 52.4 32 -4.6 23.6
13:15 1005 29.68 834 24.63 11.3 52.3 34 -4 24.8
13:20 1005 29.68 834 24.63 11.2 52.1 33 -4.5 24
13:25 1005 29.68 834 24.63 11.2 52.1 34 -4.1 24.6
13:30 1005 29.68 834 24.63 11.1 52 32 -4.8 23.3
13:35 1005 29.68 834 24.63 11.2 52.1 32 -5 23.1
13:40 1005 29.68 834 24.63 11.2 52.2 33 -4.5 23.8
13:45 1005 29.68 834 24.63 11.1 52 33 -4.4 24.1
13:50 1005 29.68 834 24.63 11 51.8 34 -4.2 24.5
13:55 1005 29.68 834 24.63 11 51.8 34 -4 24.8
14:00 1005 29.68 834 24.63 10.9 51.6 36 -3.4 25.9
14:05 1005 29.68 834 24.63 10.5 50.9 39 -2.8 26.9
14:10 1005 29.68 834 24.63 10.2 50.4 40 -2.6 27.3
14:15 1005 29.68 834 24.63 10 50 43 -1.9 28.6
14:20 1005 29.68 834 24.63 9.8 49.6 44 -2 28.5
14:25 1005 29.68 834 24.63 9.7 49.5 44 -1.9 28.7
14:30 1005 29.68 834 24.63 9.6 49.4 45 -1.8 28.7
14:35 1005 29.68 834 24.63 9.7 49.4 45 -1.8 28.8
14:40 1005 29.68 834 24.63 9.8 49.7 44 -1.8 28.8
14:45 1005 29.68 834 24.63 10 50 42 -2.2 28.1
14:50 1005 29.68 834 24.63 10.2 50.3 39 -3 26.5
14:55 1005 29.68 834 24.63 10.4 50.8 39 -2.9 26.8
15:00 1005 29.68 834 24.63 10.5 50.8 39 -2.8 26.9
15:05 1005 29.68 834 24.63 10.4 50.6 40 -2.7 27.1
15:10 1005 29.68 834 24.63 10.1 50.2 40 -2.7 27.2
15:15 1004 29.65 834 24.63 9.9 49.9 41 -2.5 27.4
15:20 1005 29.68 834 24.63 9.7 49.4 44 -1.9 28.5
15:25 1005 29.68 834 24.63 9.4 48.9 44 -2.2 28
15:30 1006 29.71 835 24.66 8.3 46.9 60 0.9 33.6
15:35 1007 29.74 836 24.69 3.8 38.8 79 0.4 32.8
15:40 1007 29.74 837 24.72 2 35.6 84 -0.5 31.2
15:45 1008 29.77 837 24.72 1.8 35.2 83 -0.8 30.6
15:50 1008 29.77 837 24.72 1.8 35.2 85 -0.5 31.2
15:55 1008 29.77 837 24.72 1.5 34.7 87 -0.4 31.3
16:00 1008 29.77 837 24.72 1.2 34.2 89 -0.4 31.2
16:05 1008 29.77 837 24.72 1 33.8 90 -0.5 31.1
16:10 1008 29.77 837 24.72 1 33.7 89 -0.6 30.9
16:15 1008 29.77 837 24.72 1.1 34 88 -0.6 30.9
16:20 1008 29.77 837 24.72 1.2 34.1 87 -0.8 30.6
16:25 1008 29.77 837 24.72 1 33.9 86 -1.1 30
16:30 1008 29.77 837 24.72 1.3 34.3 83 -1.2 29.8
16:35 1008 29.77 837 24.72 1.6 35 82 -1 30.1
16:40 1008 29.77 837 24.72 1.7 35 82 -1 30.2
16:45 1008 29.77 837 24.72 1.9 35.5 79 -1.4 29.6
16:50 1008 29.77 837 24.72 2.5 36.4 73 -2 28.4
16:55 1008 29.77 837 24.72 3 37.3 70 -2 28.5
17:00 1008 29.77 837 24.72 3 37.5 70 -1.9 28.6
17:05 1008 29.77 837 24.72 3.1 37.5 71 -1.8 28.8
17:10 1008 29.77 837 24.72 3.2 37.7 69 -2.1 28.3
17:15 1008 29.77 837 24.72 3.4 38 68 -2 28.5
17:20 1008 29.77 837 24.72 3.4 38.2 68 -1.9 28.6
17:25 1008 29.77 837 24.72 3.5 38.3 66 -2.3 27.9
17:30 1008 29.77 837 24.72 3.6 38.4 64 -2.5 27.4
17:35 1008 29.77 837 24.72 3.6 38.5 64 -2.5 27.5
17:40 1008 29.77 837 24.72 3.6 38.5 62 -3 26.7
17:45 1008 29.77 837 24.72 3.7 38.7 61 -3.2 26.2
17:50 1008 29.77 837 24.72 3.8 38.8 63 -2.7 27.1
17:55 1008 29.77 838 24.75 3.6 38.5 59 -3.7 25.3
18:00 1008 29.77 838 24.75 3.9 39.1 55 -4.4 24.1
18:05 1008 29.77 838 24.75 4.1 39.3 54 -4.3 24.3
18:10 1009 29.8 838 24.75 4 39.1 55 -4.1 24.5
18:15 1009 29.8 838 24.75 3.8 38.8 57 -4.1 24.6
18:20 1009 29.8 838 24.75 3.7 38.7 57 -4.1 24.7
18:25 1009 29.8 838 24.75 3.6 38.5 55 -4.5 24
18:30 1009 29.8 838 24.75 3.6 38.6 59 -3.7 25.4
18:35 1009 29.8 838 24.75 3.4 38.2 61 -3.5 25.8
18:40 1009 29.8 838 24.75 3.4 38 59 -3.9 24.9
18:45 1009 29.8 838 24.75 3.4 38.1 57 -4.4 24.2
18:50 1009 29.8 838 24.75 3.5 38.3 54 -4.9 23.2
18:55 1009 29.8 838 24.75 3.6 38.4 52 -5.5 22.2
19:00 1009 29.8 838 24.75 3.7 38.7 50 -5.8 21.5
19:05 1009 29.8 838 24.75 3.8 38.8 49 -6 21.2
19:10 1009 29.8 839 24.78 3.8 38.8 49 -6 21.2
19:15 1009 29.8 839 24.78 3.8 38.8 49 -6.1 21
19:20 1010 29.83 839 24.78 3.8 38.9 47 -6.5 20.4
19:25 1010 29.83 839 24.78 3.9 39 47 -6.4 20.5
19:30 1010 29.83 839 24.78 4 39.2 46 -6.6 20.2
19:35 1010 29.83 839 24.78 4 39.3 47 -6.1 21
19:40 1010 29.83 839 24.78 3.9 39 49 -6 21.3
19:45 1010 29.83 839 24.78 3.7 38.7 52 -5.3 22.4
19:50 1010 29.83 839 24.78 3.4 38.1 52 -5.5 22.1
19:55 1010 29.83 839 24.78 3.4 38.1 51 -5.9 21.4
20:00 1010 29.83 839 24.78 3.4 38.2 49 -6.3 20.7
20:05 1010 29.83 839 24.78 3.4 38.2 49 -6.3 20.7
20:10 1010 29.83 839 24.78 3.4 38.1 49 -6.4 20.4
20:15 1010 29.83 839 24.78 3.4 38 47 -6.9 19.6
20:20 1010 29.83 839 24.78 3.3 38 48 -6.6 20.1
20:25 1010 29.83 839 24.78 3.3 37.9 47 -7 19.4
20:30 1010 29.83 839 24.78 3.3 37.9 45 -7.6 18.3
20:35 1010 29.83 839 24.78 3.3 38 45 -7.4 18.6
20:40 1010 29.83 839 24.78 3.3 37.9 45 -7.5 18.4
20:45 1010 29.83 839 24.78 3.2 37.8 45 -7.6 18.4
20:50 1010 29.83 839 24.78 3.2 37.8 45 -7.6 18.4
20:55 1010 29.83 839 24.78 3.1 37.6 46 -7.3 18.9
21:00 1010 29.83 840 24.81 2.9 37.2 48 -7.2 19.1
21:05 1010 29.83 840 24.81 2.8 37 47 -7.5 18.6
21:10 1011 29.85 840 24.81 2.8 37.1 47 -7.3 18.8
21:15 1010 29.83 840 24.81 2.7 36.9 47 -7.7 18.2
21:20 1010 29.83 840 24.81 2.6 36.7 47 -7.7 18.2
21:25 1010 29.83 840 24.81 2.6 36.6 47 -7.7 18.2
21:30 1010 29.83 840 24.81 2.6 36.7 46 -7.8 17.9
21:35 1010 29.83 840 24.81 2.6 36.7 45 -8.1 17.5
21:40 1010 29.83 840 24.81 2.7 36.9 45 -8.1 17.4
21:45 1010 29.83 840 24.81 2.8 37.1 46 -7.6 18.2
21:50 1010 29.83 840 24.81 2.8 37 45 -7.9 17.8
21:55 1010 29.83 840 24.81 2.8 37 47 -7.5 18.5
22:00 1010 29.83 840 24.81 2.6 36.7 47 -7.5 18.4
22:05 1010 29.83 840 24.81 2.6 36.7 46 -7.9 17.8
22:10 1011 29.85 840 24.81 2.7 36.8 46 -7.8 17.9
22:15 1011 29.85 840 24.81 2.7 36.8 47 -7.6 18.3
22:20 1011 29.85 840 24.81 2.5 36.6 47 -7.6 18.3
22:25 1011 29.85 840 24.81 2.6 36.6 47 -7.7 18.1
22:30 1011 29.85 840 24.81 2.5 36.5 47 -7.8 18
22:35 1011 29.85 840 24.81 2.5 36.4 48 -7.6 18.4
22:40 1011 29.85 840 24.81 2.4 36.3 47 -7.7 18.1
22:45 1011 29.85 840 24.81 2.5 36.4 48 -7.3 18.8
22:50 1011 29.85 840 24.81 2.4 36.3 49 -7.4 18.7
22:55 1011 29.85 840 24.81 2.3 36.2 50 -7.1 19.2
23:00 1011 29.85 840 24.81 2.3 36.1 49 -7.3 18.8
23:05 1011 29.85 840 24.81 2.2 35.9 50 -7.2 19
23:10 1011 29.85 840 24.81 2.1 35.8 50 -7.3 18.9
23:15 1011 29.85 840 24.81 2.2 35.9 51 -7 19.4
23:20 1011 29.85 841 24.83 2.2 36 50 -7.2 19.1
23:25 1011 29.85 841 24.83 2.5 36.5 50 -6.9 19.6
23:30 1011 29.85 840 24.81 2.5 36.5 50 -6.8 19.8
23:35 1011 29.85 841 24.83 2.5 36.5 51 -6.5 20.3
23:40 1011 29.85 841 24.83 2.6 36.6 51 -6.5 20.3
23:45 1011 29.85 841 24.83 2.7 36.9 51 -6.6 20.2
23:50 1012 29.88 841 24.83 2.8 37 50 -6.7 20
23:55 1012 29.88 841 24.83 2.7 36.9 51 -6.5 20.4
24:00 1012 29.88 841 24.83 2.7 36.8 51 -6.5 20.3